Time;durP1;ratioP1;P1;durP2;ratioP2;P2;SDS_P1;SDS_P2;PMS_P1;PMS_P2;Temp;Humidity;BMP_temperature;BMP_pressure;BME280_temperature;BME280_humidity;BME280_pressure;Samples;Min_cycle;Max_cycle;Signal;HPM_P1;HPM_P2
2022/05/18 00:01:14;;;;;;;2.00;1.77;;;21.20;99.90;;;;;;5065534;28;20198;-71
2022/05/18 00:03:44;;;;;;;1.92;1.80;;;21.20;99.90;;;;;;5063690;28;20222;-71
2022/05/18 00:06:12;;;;;;;2.55;1.90;;;21.20;99.90;;;;;;5068743;28;20198;-71
2022/05/18 00:08:39;;;;;;;1.80;1.70;;;21.20;99.90;;;;;;5065047;28;20750;-71
2022/05/18 00:11:11;;;;;;;2.03;1.83;;;21.20;99.90;;;;;;5067701;28;20203;-71
2022/05/18 00:13:40;;;;;;;2.22;1.73;;;21.10;99.90;;;;;;5066719;28;20218;-72
2022/05/18 00:16:07;;;;;;;2.00;1.83;;;21.10;99.90;;;;;;5062328;28;20454;-72
2022/05/18 00:18:34;;;;;;;2.35;1.92;;;21.10;99.90;;;;;;5063560;28;20279;-71
2022/05/18 00:21:01;;;;;;;2.33;1.40;;;21.00;99.90;;;;;;5061678;28;20205;-71
2022/05/18 00:23:29;;;;;;;2.10;1.90;;;21.00;99.90;;;;;;5068009;28;20226;-71
2022/05/18 00:25:56;;;;;;;1.75;1.65;;;21.00;99.90;;;;;;5066404;28;20792;-72
2022/05/18 00:28:25;;;;;;;1.92;1.77;;;21.00;99.90;;;;;;5065560;28;20218;-71
2022/05/18 00:30:52;;;;;;;1.80;1.70;;;21.00;99.90;;;;;;5060042;28;20186;-71
2022/05/18 00:33:20;;;;;;;1.88;1.77;;;21.00;99.90;;;;;;5066891;28;20219;-71
2022/05/18 00:35:47;;;;;;;1.73;1.48;;;20.90;99.90;;;;;;5066995;28;20244;-71
2022/05/18 00:38:14;;;;;;;2.42;1.80;;;20.90;99.90;;;;;;5066622;28;20222;-71
2022/05/18 00:40:45;;;;;;;2.00;1.80;;;20.80;99.90;;;;;;5065074;28;20259;-71
2022/05/18 00:43:17;;;;;;;1.60;1.50;;;20.60;99.90;;;;;;5070472;28;20237;-71
2022/05/18 00:45:46;;;;;;;2.33;2.10;;;20.50;99.90;;;;;;5065256;28;20213;-71
2022/05/18 00:48:13;;;;;;;2.15;1.80;;;20.30;99.90;;;;;;5068772;28;20218;-70
2022/05/18 00:50:42;;;;;;;2.10;2.00;;;20.20;99.90;;;;;;5066036;28;20194;-71
2022/05/18 00:53:15;;;;;;;1.80;1.70;;;20.10;99.90;;;;;;5067017;28;20229;-71
2022/05/18 00:55:46;;;;;;;1.70;1.60;;;20.10;99.90;;;;;;5068320;28;20221;-71
2022/05/18 00:58:18;;;;;;;1.77;1.55;;;20.00;99.90;;;;;;5070424;28;20230;-71
2022/05/18 01:00:49;;;;;;;2.42;1.95;;;19.90;99.90;;;;;;5070311;28;20722;-71
2022/05/18 01:03:21;;;;;;;1.65;1.55;;;19.90;99.90;;;;;;5065752;28;20226;-71
2022/05/18 01:05:53;;;;;;;1.88;1.60;;;19.90;99.90;;;;;;5071996;28;20190;-71
2022/05/18 01:08:31;;;;;;;2.25;1.90;;;19.90;99.90;;;;;;5076367;28;20973;-70
2022/05/18 01:10:59;;;;;;;1.75;1.50;;;19.80;99.90;;;;;;5067918;28;20221;-70
2022/05/18 01:13:26;;;;;;;1.85;1.73;;;19.80;99.90;;;;;;5107588;22;20248;-74
2022/05/18 01:15:54;;;;;;;1.73;1.52;;;19.80;99.90;;;;;;5059847;28;20198;-74
2022/05/18 01:18:22;;;;;;;2.38;1.58;;;19.70;99.90;;;;;;5064295;28;20298;-74
2022/05/18 01:20:49;;;;;;;1.92;1.83;;;19.70;99.90;;;;;;5066530;28;20669;-75
2022/05/18 01:23:35;;;;;;;1.92;1.70;;;19.70;99.90;;;;;;5065698;28;20222;-74
2022/05/18 01:26:12;;;;;;;1.70;1.60;;;19.60;99.90;;;;;;5063599;28;20230;-74
2022/05/18 01:28:43;;;;;;;1.90;1.80;;;19.60;99.90;;;;;;5065748;28;20218;-74
2022/05/18 01:31:11;;;;;;;1.80;1.70;;;19.50;99.90;;;;;;5062146;28;20198;-74
2022/05/18 01:33:38;;;;;;;1.65;1.55;;;19.50;99.90;;;;;;5062730;28;20218;-74
2022/05/18 01:36:06;;;;;;;1.85;1.65;;;19.50;99.90;;;;;;5066246;28;20676;-75
2022/05/18 01:38:33;;;;;;;1.95;1.63;;;19.50;99.90;;;;;;5066671;28;20233;-74
2022/05/18 01:41:05;;;;;;;2.78;2.05;;;19.50;99.90;;;;;;5067746;28;20222;-74
2022/05/18 01:43:36;;;;;;;1.77;1.67;;;19.50;99.90;;;;;;5066838;28;20234;-74
2022/05/18 01:46:07;;;;;;;3.03;1.60;;;19.50;99.90;;;;;;5074956;28;20210;-74
2022/05/18 01:48:37;;;;;;;1.40;1.30;;;19.50;99.90;;;;;;5067283;28;20529;-74
2022/05/18 01:51:06;;;;;;;1.67;1.58;;;19.40;99.90;;;;;;5066647;28;20205;-75
2022/05/18 01:53:35;;;;;;;1.77;1.67;;;19.40;99.90;;;;;;5064148;28;20456;-75
2022/05/18 01:56:02;;;;;;;1.70;1.60;;;19.30;99.90;;;;;;5061685;28;20224;-73
2022/05/18 01:58:29;;;;;;;2.08;1.52;;;19.30;99.90;;;;;;5047893;28;20223;-74
2022/05/18 02:00:56;;;;;;;1.73;1.60;;;19.20;99.90;;;;;;5042089;28;20214;-74
2022/05/18 02:03:25;;;;;;;1.92;1.83;;;19.20;99.90;;;;;;5042737;28;20227;-74
2022/05/18 02:05:52;;;;;;;1.88;1.60;;;19.20;99.90;;;;;;5039190;28;20230;-74
2022/05/18 02:08:21;;;;;;;1.80;1.70;;;19.10;99.90;;;;;;5038640;28;20222;-74
2022/05/18 02:10:51;;;;;;;1.83;1.73;;;19.10;99.90;;;;;;5043377;28;20282;-75
2022/05/18 02:13:19;;;;;;;1.58;1.48;;;19.00;99.90;;;;;;5042385;28;20608;-74
2022/05/18 02:15:46;;;;;;;1.75;1.65;;;19.00;99.90;;;;;;5042585;28;20195;-74
2022/05/18 02:18:13;;;;;;;2.03;1.90;;;19.00;99.90;;;;;;5043293;28;20728;-74
2022/05/18 02:20:42;;;;;;;1.83;1.70;;;19.00;99.90;;;;;;5038162;28;20199;-74
2022/05/18 02:23:10;;;;;;;1.98;1.88;;;19.00;99.90;;;;;;5040029;28;20277;-74
2022/05/18 02:25:37;;;;;;;1.85;1.75;;;19.00;99.90;;;;;;5043518;28;20191;-74
2022/05/18 02:28:05;;;;;;;1.63;1.52;;;18.90;99.90;;;;;;5042180;28;20656;-73
2022/05/18 02:30:33;;;;;;;2.08;1.83;;;18.90;99.90;;;;;;5041669;28;20260;-72
2022/05/18 02:33:00;;;;;;;1.80;1.70;;;18.90;99.90;;;;;;5038303;28;20216;-74
2022/05/18 02:35:27;;;;;;;4.43;2.22;;;18.80;99.90;;;;;;5045682;28;20787;-73
2022/05/18 02:37:56;;;;;;;2.70;2.00;;;18.80;99.90;;;;;;5057426;28;20214;-73
2022/05/18 02:40:23;;;;;;;2.00;1.90;;;18.80;99.90;;;;;;5044509;28;20205;-73
2022/05/18 02:42:50;;;;;;;2.03;1.60;;;18.80;99.90;;;;;;5041177;28;20219;-73
2022/05/18 02:45:18;;;;;;;2.63;1.80;;;18.80;99.90;;;;;;5040674;28;20268;-72
2022/05/18 02:47:45;;;;;;;1.80;1.70;;;18.70;99.90;;;;;;5044190;28;20222;-72
2022/05/18 02:50:12;;;;;;;1.95;1.75;;;18.70;99.90;;;;;;5039307;28;20191;-73
2022/05/18 02:52:39;;;;;;;1.92;1.83;;;18.60;99.90;;;;;;5036610;28;20250;-74
2022/05/18 02:57:54;;;;;;;2.38;1.80;;;18.50;99.90;;;;;;5043561;28;20349;-73
2022/05/18 03:00:22;;;;;;;1.75;1.65;;;18.50;99.90;;;;;;5042623;28;20269;-73
2022/05/18 03:02:49;;;;;;;2.03;1.83;;;18.50;99.90;;;;;;5039680;28;20227;-72
2022/05/18 03:05:16;;;;;;;1.98;1.83;;;18.40;99.90;;;;;;5039061;28;20221;-74
2022/05/18 03:07:43;;;;;;;1.80;1.70;;;18.40;99.90;;;;;;5038186;28;20206;-73
2022/05/18 03:10:15;;;;;;;1.80;1.70;;;18.40;99.90;;;;;;5042565;28;20202;-72
2022/05/18 03:12:43;;;;;;;1.77;1.67;;;18.30;99.90;;;;;;5040812;28;20626;-73
2022/05/18 03:15:12;;;;;;;1.80;1.70;;;18.30;99.90;;;;;;5038893;28;20313;-73
2022/05/18 03:17:39;;;;;;;1.63;1.52;;;18.40;99.90;;;;;;5043949;28;20812;-74
2022/05/18 03:20:08;;;;;;;1.80;1.70;;;18.40;99.90;;;;;;5046185;28;20203;-72
2022/05/18 03:25:21;;;;;;;2.10;2.00;;;18.40;99.90;;;;;;5041335;28;20833;-72
2022/05/18 03:27:49;;;;;;;2.85;2.05;;;18.30;99.90;;;;;;5041161;28;20248;-73
2022/05/18 03:30:16;;;;;;;2.03;1.80;;;18.30;99.90;;;;;;5052483;28;20791;-72
2022/05/18 03:32:44;;;;;;;1.77;1.67;;;18.40;99.90;;;;;;5041609;28;20195;-73
2022/05/18 03:35:11;;;;;;;1.75;1.65;;;18.40;99.90;;;;;;5042768;28;20214;-72
2022/05/18 03:37:39;;;;;;;1.95;1.85;;;18.40;99.90;;;;;;5041027;28;20217;-73
2022/05/18 03:40:07;;;;;;;1.80;1.70;;;18.30;99.90;;;;;;5039790;28;20413;-72
2022/05/18 03:42:35;;;;;;;2.03;1.88;;;18.30;99.90;;;;;;5042887;28;20206;-73
2022/05/18 03:45:02;;;;;;;1.80;1.70;;;18.30;99.90;;;;;;5037870;28;20222;-72
2022/05/18 03:47:30;;;;;;;1.80;1.70;;;18.30;99.90;;;;;;5043045;28;20207;-73
2022/05/18 03:49:57;;;;;;;2.08;1.85;;;18.20;99.90;;;;;;5039370;28;20440;-73
2022/05/18 03:52:24;;;;;;;1.85;1.75;;;18.20;99.90;;;;;;5040189;28;20210;-72
2022/05/18 03:54:51;;;;;;;2.10;1.80;;;18.10;99.90;;;;;;5038048;28;20227;-75
2022/05/18 03:57:19;;;;;;;1.92;1.83;;;18.10;99.90;;;;;;5041060;28;20207;-74
2022/05/18 03:59:47;;;;;;;3.10;2.05;;;18.10;99.90;;;;;;5040466;28;20226;-73
2022/05/18 04:02:14;;;;;;;1.90;1.80;;;18.10;99.90;;;;;;5041420;28;20230;-72
2022/05/18 04:04:43;;;;;;;1.70;1.60;;;18.10;99.90;;;;;;5036950;28;20272;-73
2022/05/18 04:07:10;;;;;;;1.80;1.70;;;18.10;99.90;;;;;;5041499;28;20238;-72
2022/05/18 04:09:37;;;;;;;2.08;1.92;;;18.10;99.90;;;;;;5040399;28;20281;-73
2022/05/18 04:12:05;;;;;;;1.83;1.73;;;18.10;99.90;;;;;;5043069;28;20348;-73
2022/05/18 04:14:32;;;;;;;1.67;1.58;;;18.10;99.90;;;;;;5038797;28;20713;-73
2022/05/18 04:17:00;;;;;;;2.25;1.70;;;18.10;99.90;;;;;;5041134;28;20211;-73
2022/05/18 04:19:27;;;;;;;2.72;2.53;;;18.10;99.90;;;;;;5042491;28;20215;-72
2022/05/18 04:21:54;;;;;;;6.43;1.60;;;18.10;99.90;;;;;;5052025;28;20190;-73
2022/05/18 04:24:21;;;;;;;2.28;1.70;;;18.10;99.90;;;;;;5041979;28;20230;-73
2022/05/18 04:26:48;;;;;;;2.67;1.92;;;18.10;99.90;;;;;;5042004;28;20195;-72
2022/05/18 04:29:15;;;;;;;1.92;1.83;;;18.10;99.90;;;;;;5038517;28;20218;-75
2022/05/18 04:31:42;;;;;;;2.10;2.00;;;18.20;99.90;;;;;;5040154;28;20195;-75
2022/05/18 04:34:11;;;;;;;2.05;1.95;;;18.20;99.90;;;;;;5037398;28;20515;-75
2022/05/18 04:36:38;;;;;;;1.92;1.83;;;18.40;99.90;;;;;;5039198;28;20557;-75
2022/05/18 04:39:05;;;;;;;1.90;1.80;;;18.50;99.90;;;;;;5040854;28;20218;-75
2022/05/18 04:41:32;;;;;;;1.98;1.60;;;18.60;99.90;;;;;;5042335;28;20253;-75
2022/05/18 04:43:59;;;;;;;2.70;1.52;;;18.70;99.90;;;;;;5037642;28;20227;-72
2022/05/18 04:46:26;;;;;;;1.90;1.80;;;18.80;99.90;;;;;;5035054;28;20261;-74
2022/05/18 04:48:53;;;;;;;1.70;1.60;;;18.90;99.90;;;;;;5036241;28;20223;-75
2022/05/18 04:51:21;;;;;;;2.10;1.92;;;19.00;99.90;;;;;;5035548;28;20662;-74
2022/05/18 04:53:48;;;;;;;1.88;1.77;;;19.10;99.90;;;;;;5044956;28;20214;-75
2022/05/18 04:56:15;;;;;;;1.98;1.83;;;19.20;99.90;;;;;;5039978;28;20307;-74
2022/05/18 04:58:42;;;;;;;2.20;2.00;;;19.20;99.90;;;;;;5038196;28;20633;-74
2022/05/18 05:01:10;;;;;;;2.33;2.13;;;19.30;99.90;;;;;;5040179;28;20199;-75
2022/05/18 05:03:38;;;;;;;1.88;1.60;;;19.40;99.90;;;;;;5041869;28;20709;-74
2022/05/18 05:06:07;;;;;;;3.83;2.35;;;19.50;99.90;;;;;;5041694;28;20199;-75
2022/05/18 05:08:37;;;;;;;2.00;1.90;;;19.60;99.90;;;;;;5040457;28;20674;-74
2022/05/18 05:11:05;;;;;;;3.38;2.10;;;19.70;99.90;;;;;;5038013;28;20877;-75
2022/05/18 05:13:32;;;;;;;2.08;1.98;;;19.80;99.90;;;;;;5040834;28;20261;-75
2022/05/18 05:16:01;;;;;;;3.90;2.28;;;19.90;99.90;;;;;;5041721;28;20218;-74
2022/05/18 05:18:28;;;;;;;2.63;2.00;;;19.90;99.90;;;;;;5041809;28;20284;-72
2022/05/18 05:20:56;;;;;;;4.13;2.53;;;20.00;99.90;;;;;;5040481;28;20195;-75
2022/05/18 05:23:24;;;;;;;3.22;2.53;;;20.10;99.90;;;;;;5039859;28;20700;-75
2022/05/18 05:25:52;;;;;;;3.47;2.50;;;20.30;99.90;;;;;;5038020;28;20199;-75
2022/05/18 05:28:20;;;;;;;2.97;2.53;;;20.40;99.90;;;;;;5045662;28;20274;-75
2022/05/18 05:30:47;;;;;;;3.05;2.67;;;20.50;99.90;;;;;;5044884;28;20633;-75
2022/05/18 05:33:14;;;;;;;3.05;2.60;;;20.50;99.90;;;;;;5045905;28;20908;-75
2022/05/18 05:35:42;;;;;;;2.92;2.72;;;20.60;99.90;;;;;;5042915;28;20199;-74
2022/05/18 05:38:10;;;;;;;3.72;2.22;;;20.70;99.90;;;;;;5043945;28;20210;-75
2022/05/18 05:40:37;;;;;;;2.92;2.45;;;20.90;99.90;;;;;;5042505;28;20199;-76
2022/05/18 05:43:08;;;;;;;2.47;2.28;;;21.00;99.90;;;;;;5045528;28;20595;-74
2022/05/18 05:45:35;;;;;;;2.80;2.58;;;21.20;99.90;;;;;;5039906;28;20195;-75
2022/05/18 05:48:02;;;;;;;3.60;2.55;;;21.30;99.90;;;;;;5042981;28;20194;-75
2022/05/18 05:50:30;;;;;;;2.55;2.35;;;21.30;99.90;;;;;;5045403;28;20203;-74
2022/05/18 05:52:57;;;;;;;3.17;2.70;;;21.40;99.90;;;;;;5042907;28;20627;-76
2022/05/18 05:55:24;;;;;;;2.83;2.42;;;21.40;99.90;;;;;;5038430;28;20231;-74
2022/05/18 05:57:54;;;;;;;2.55;2.35;;;21.40;99.90;;;;;;5044834;28;20591;-75
2022/05/18 06:00:23;;;;;;;2.80;2.60;;;21.40;99.90;;;;;;5040482;28;20313;-74
2022/05/18 06:02:51;;;;;;;2.58;2.38;;;21.30;99.90;;;;;;5044463;28;20207;-75
2022/05/18 06:05:19;;;;;;;4.65;2.42;;;21.40;99.90;;;;;;5041890;28;20218;-75
2022/05/18 06:07:46;;;;;;;3.33;2.67;;;21.40;99.90;;;;;;5041821;28;20689;-75
2022/05/18 06:10:14;;;;;;;10.60;2.83;;;21.50;99.90;;;;;;5041713;28;20230;-75
2022/05/18 06:12:41;;;;;;;4.53;2.35;;;21.60;99.90;;;;;;5045225;28;20435;-76
2022/05/18 06:15:09;;;;;;;3.22;2.67;;;21.70;99.90;;;;;;5041669;28;20586;-75
2022/05/18 06:17:37;;;;;;;3.60;3.10;;;21.70;99.90;;;;;;5046286;28;20713;-75
2022/05/18 06:20:05;;;;;;;3.42;2.88;;;21.70;99.90;;;;;;5044164;28;20605;-74
2022/05/18 06:22:33;;;;;;;6.05;2.92;;;21.70;99.90;;;;;;5041964;28;20203;-73
2022/05/18 06:25:00;;;;;;;4.25;2.70;;;21.80;99.90;;;;;;5046433;28;20291;-75
2022/05/18 06:27:27;;;;;;;3.70;2.85;;;21.80;99.90;;;;;;5043274;28;20210;-75
2022/05/18 06:29:54;;;;;;;2.83;2.63;;;21.90;99.90;;;;;;5045635;28;20218;-75
2022/05/18 06:32:21;;;;;;;3.58;2.50;;;22.00;99.90;;;;;;5041385;28;20214;-75
2022/05/18 06:34:49;;;;;;;7.15;2.55;;;22.30;99.90;;;;;;5041765;28;20238;-76
2022/05/18 06:37:17;;;;;;;6.10;2.65;;;22.50;99.90;;;;;;5043925;28;20253;-75
2022/05/18 06:39:44;;;;;;;4.10;2.88;;;22.50;99.90;;;;;;5043407;28;20226;-76
2022/05/18 06:42:11;;;;;;;3.03;2.70;;;22.50;99.90;;;;;;5038379;28;20665;-76
2022/05/18 06:44:38;;;;;;;4.50;2.70;;;22.50;99.90;;;;;;5039827;28;20227;-76
2022/05/18 06:47:06;;;;;;;2.58;2.35;;;22.50;99.90;;;;;;5044413;28;20228;-76
2022/05/18 06:49:33;;;;;;;5.88;2.88;;;22.60;99.90;;;;;;5039026;28;20601;-76
2022/05/18 06:52:01;;;;;;;4.93;2.70;;;22.70;99.90;;;;;;5039143;28;20198;-75
2022/05/18 06:54:28;;;;;;;3.28;2.72;;;22.70;99.90;;;;;;5034681;28;20219;-77
2022/05/18 06:56:55;;;;;;;3.13;2.83;;;22.70;99.90;;;;;;5039333;28;20199;-75
2022/05/18 06:59:22;;;;;;;3.15;2.15;;;22.70;99.90;;;;;;5040847;28;20933;-74
2022/05/18 07:01:50;;;;;;;4.28;2.70;;;22.70;99.90;;;;;;5038546;28;20203;-75
2022/05/18 07:04:17;;;;;;;2.83;2.63;;;22.80;99.90;;;;;;5035523;28;20231;-76
2022/05/18 07:06:45;;;;;;;5.18;2.75;;;22.90;99.90;;;;;;5036442;28;20195;-79
2022/05/18 07:09:16;;;;;;;2.88;2.35;;;22.90;99.90;;;;;;5037105;28;21010;-75
2022/05/18 07:11:45;;;;;;;3.58;2.80;;;22.90;99.90;;;;;;5030445;28;20265;-76
2022/05/18 07:14:13;;;;;;;3.15;2.63;;;22.90;99.90;;;;;;5032545;28;21078;-73
2022/05/18 07:16:42;;;;;;;3.40;2.53;;;23.00;99.90;;;;;;5034999;28;20188;-74
2022/05/18 07:19:10;;;;;;;5.13;2.80;;;23.10;99.90;;;;;;5095292;22;20332;-75
2022/05/18 07:21:37;;;;;;;5.18;3.17;;;23.30;99.90;;;;;;5031726;28;20195;-77
2022/05/18 07:24:05;;;;;;;3.50;2.80;;;23.40;99.90;;;;;;5025269;28;20281;-78
2022/05/18 07:26:34;;;;;;;2.97;2.70;;;23.60;99.90;;;;;;5012981;28;20257;-76
2022/05/18 07:29:03;;;;;;;3.35;2.92;;;23.70;99.90;;;;;;5023870;28;20219;-77
2022/05/18 07:32:08;;;;;;;3.53;2.95;;;23.70;99.90;;;;;;5034807;28;20264;-74
2022/05/18 07:34:17;;;;;;;2.60;2.40;;;23.70;99.90;;;;;;5041418;28;20218;-77
2022/05/18 07:36:44;;;;;;;2.28;2.08;;;23.60;99.90;;;;;;5053971;28;20202;-75
2022/05/18 07:39:12;;;;;;;3.83;2.50;;;23.70;99.90;;;;;;5051693;28;20226;-75
2022/05/18 07:41:41;;;;;;;2.83;2.63;;;23.80;99.90;;;;;;5051680;28;20271;-76
2022/05/18 07:44:08;;;;;;;3.30;2.20;;;23.90;99.90;;;;;;5056891;28;20222;-76
2022/05/18 07:46:36;;;;;;;5.47;2.50;;;23.80;99.90;;;;;;5052123;28;20202;-76
2022/05/18 07:49:03;;;;;;;2.38;2.17;;;23.90;99.90;;;;;;5057571;28;20223;-76
2022/05/18 07:51:30;;;;;;;2.70;2.50;;;24.10;99.90;;;;;;5062192;28;20195;-76
2022/05/18 07:53:57;;;;;;;7.13;2.72;;;24.30;99.90;;;;;;5046751;28;20268;-76
2022/05/18 07:56:24;;;;;;;3.20;2.83;;;24.40;99.90;;;;;;5057334;28;20665;-76
2022/05/18 07:58:53;;;;;;;5.50;3.22;;;24.50;99.90;;;;;;5054793;28;20292;-76
2022/05/18 08:01:20;;;;;;;3.03;2.83;;;24.50;99.90;;;;;;5043000;28;20677;-76
2022/05/18 08:03:48;;;;;;;2.70;2.47;;;24.50;99.90;;;;;;5046858;28;20697;-77
2022/05/18 08:06:16;;;;;;;4.75;2.78;;;24.50;99.90;;;;;;5046597;28;20256;-76
2022/05/18 08:08:43;;;;;;;3.42;2.58;;;24.40;99.90;;;;;;5045188;28;20713;-75
2022/05/18 08:16:40;;;;;;;6.15;2.70;;;24.60;99.90;;;;;;5034302;28;20218;-76
2022/05/18 08:19:10;;;;;;;5.07;2.95;;;24.60;99.90;;;;;;5052118;28;20254;-76
2022/05/18 08:21:38;;;;;;;3.72;2.50;;;24.90;99.90;;;;;;5056683;28;20195;-76
2022/05/18 08:24:06;;;;;;;2.38;2.17;;;24.90;99.90;;;;;;5053199;28;20318;-76
2022/05/18 08:26:34;;;;;;;2.70;2.50;;;25.20;99.90;;;;;;5057716;28;20194;-76
2022/05/18 08:29:03;;;;;;;5.57;2.78;;;25.40;99.90;;;;;;5051222;28;20282;-77
2022/05/18 08:31:31;;;;;;;3.00;2.38;;;25.40;99.90;;;;;;5038987;28;20206;-76
2022/05/18 08:33:58;;;;;;;3.17;2.88;;;25.40;99.90;;;;;;5041431;28;20756;-76
2022/05/18 08:36:26;;;;;;;2.50;2.30;;;25.30;99.90;;;;;;5039418;28;20715;-76
2022/05/18 08:38:54;;;;;;;3.15;2.70;;;25.50;99.90;;;;;;5037181;28;20767;-76
2022/05/18 08:41:24;;;;;;;4.65;3.13;;;25.60;99.90;;;;;;5038846;28;20203;-76
2022/05/18 08:43:53;;;;;;;5.93;3.03;;;25.50;99.90;;;;;;5036808;28;20272;-76
2022/05/18 08:46:35;;;;;;;3.38;2.70;;;25.50;99.90;;;;;;5058988;28;20864;-76
2022/05/18 08:49:11;;;;;;;4.47;2.83;;;25.70;99.90;;;;;;5055905;28;20519;-76
2022/05/18 08:51:48;;;;;;;3.45;2.83;;;25.60;99.90;;;;;;5038345;28;20213;-76
2022/05/18 08:54:31;;;;;;;4.22;2.83;;;25.80;99.90;;;;;;5045579;28;20238;-75
2022/05/18 08:56:59;;;;;;;3.40;2.75;;;26.00;99.90;;;;;;5043748;28;20252;-76
2022/05/18 08:59:31;;;;;;;2.85;2.47;;;26.10;99.90;;;;;;5046147;28;20280;-76
2022/05/18 09:02:04;;;;;;;2.50;2.30;;;26.20;99.90;;;;;;5050582;28;20195;-75
2022/05/18 09:04:43;;;;;;;5.32;2.78;;;26.30;99.90;;;;;;5051962;28;20215;-76
2022/05/18 09:07:14;;;;;;;3.17;2.33;;;26.50;99.90;;;;;;5048641;28;20202;-77
2022/05/18 09:12:33;;;;;;;3.03;2.53;;;26.00;99.90;;;;;;5059153;28;20222;-76
2022/05/18 09:15:00;;;;;;;2.88;2.65;;;25.60;99.90;;;;;;5055292;28;20660;-76
2022/05/18 09:17:37;;;;;;;2.75;2.35;;;25.30;99.90;;;;;;5062705;28;20203;-76
2022/05/18 09:20:15;;;;;;;3.58;2.47;;;25.00;99.90;;;;;;5058871;28;20235;-76
2022/05/18 09:23:09;;;;;;;2.90;2.05;;;25.10;99.90;;;;;;5060966;28;20195;-76
2022/05/18 09:25:50;;;;;;;5.30;2.22;;;25.20;99.90;;;;;;5056627;28;20693;-76
2022/05/18 09:28:26;;;;;;;2.50;2.28;;;25.20;99.90;;;;;;5061408;28;20627;-76
2022/05/18 09:31:09;;;;;;;2.60;2.40;;;25.30;99.90;;;;;;5064015;28;20218;-76
2022/05/18 09:33:55;;;;;;;3.28;2.50;;;25.50;99.90;;;;;;5060348;28;20708;-76
2022/05/18 09:36:56;;;;;;;4.07;2.72;;;25.60;99.90;;;;;;5058136;28;20214;-76
2022/05/18 09:39:27;;;;;;;2.80;2.42;;;25.60;99.90;;;;;;5060993;28;20226;-76
2022/05/18 09:41:59;;;;;;;2.50;2.30;;;25.70;99.90;;;;;;5060854;28;20197;-76
2022/05/18 09:44:36;;;;;;;5.15;2.63;;;25.90;99.90;;;;;;5059062;28;20214;-76
2022/05/18 09:47:04;;;;;;;4.43;2.45;;;26.30;99.90;;;;;;5057810;28;20198;-76
2022/05/18 09:49:39;;;;;;;3.70;2.65;;;26.70;99.90;;;;;;5063749;28;20222;-76
2022/05/18 09:52:07;;;;;;;4.10;2.55;;;27.10;99.90;;;;;;5062564;28;20247;-77
2022/05/18 09:54:37;;;;;;;2.63;2.28;;;27.50;99.90;;;;;;5059634;28;20218;-76
2022/05/18 09:57:11;;;;;;;3.83;2.20;;;27.60;99.90;;;;;;5065945;28;20194;-77
2022/05/18 09:59:43;;;;;;;2.95;2.42;;;27.90;99.90;;;;;;5062886;28;20229;-77
2022/05/18 10:07:52;;;;;;;2.80;2.35;;;28.50;99.90;;;;;;5062322;28;20580;-76
2022/05/18 10:10:25;;;;;;;3.50;3.15;;;28.60;99.90;;;;;;5068832;28;20275;-76
2022/05/18 10:13:02;;;;;;;4.70;3.10;;;28.40;99.90;;;;;;5061126;28;20225;-76
2022/05/18 10:15:37;;;;;;;5.63;2.90;;;28.10;99.90;;;;;;5064332;28;20700;-75
2022/05/18 10:18:15;;;;;;;4.13;3.20;;;28.20;99.90;;;;;;5062034;28;20585;-75
2022/05/18 10:21:01;;;;;;;5.93;3.60;;;28.20;99.90;;;;;;5063060;28;20210;-76
2022/05/18 10:23:33;;;;;;;3.80;3.22;;;27.70;99.90;;;;;;5062786;28;20206;-75
2022/05/18 10:26:01;;;;;;;3.97;3.45;;;27.70;99.90;;;;;;5063858;28;20301;-75
2022/05/18 10:28:31;;;;;;;7.40;3.60;;;27.90;99.90;;;;;;5062662;28;20268;-76
2022/05/18 10:31:01;;;;;;;4.25;3.35;;;27.90;99.90;;;;;;5064838;28;20220;-77
2022/05/18 10:33:33;;;;;;;5.80;3.65;;;27.60;99.90;;;;;;5063687;28;20203;-75
2022/05/18 10:36:12;;;;;;;6.90;3.30;;;27.70;99.90;;;;;;5065215;28;20217;-75
2022/05/18 10:38:49;;;;;;;4.13;3.40;;;28.00;99.90;;;;;;5060066;28;20219;-76
2022/05/18 10:41:20;;;;;;;5.45;3.72;;;28.30;99.90;;;;;;5060919;28;20701;-75
2022/05/18 10:44:01;;;;;;;3.35;3.05;;;28.40;99.90;;;;;;5058933;28;20202;-75
2022/05/18 10:46:31;;;;;;;4.00;3.40;;;28.40;99.90;;;;;;5058181;28;20305;-76
2022/05/18 10:49:01;;;;;;;5.25;3.97;;;28.50;99.90;;;;;;5062015;28;20696;-76
2022/05/18 10:51:33;;;;;;;4.43;3.78;;;28.80;99.90;;;;;;5057973;28;20218;-75
2022/05/18 10:54:11;;;;;;;4.07;3.50;;;28.90;99.90;;;;;;5058710;28;20190;-76
2022/05/18 10:56:38;;;;;;;4.45;3.60;;;28.70;99.90;;;;;;5062175;28;20206;-75
2022/05/18 10:59:45;;;;;;;7.07;4.00;;;28.10;99.90;;;;;;5059851;28;20246;-75
2022/05/18 11:02:21;;;;;;;5.15;3.85;;;27.90;99.90;;;;;;5013187;28;20314;-74
2022/05/18 11:04:55;;;;;;;4.80;4.22;;;27.90;99.90;;;;;;5063129;28;20201;-76
2022/05/18 11:07:27;;;;;;;7.63;3.90;;;28.10;99.90;;;;;;5059985;28;20233;-75
2022/05/18 11:09:55;;;;;;;4.55;3.55;;;28.20;99.90;;;;;;5060035;28;20513;-75
2022/05/18 11:12:39;;;;;;;5.70;3.47;;;28.10;99.90;;;;;;5059953;28;20545;-76
2022/05/18 11:15:10;;;;;;;4.38;3.15;;;28.00;99.90;;;;;;5061784;28;20195;-76
2022/05/18 11:17:50;;;;;;;3.25;2.95;;;28.00;99.90;;;;;;5059216;28;20226;-76
2022/05/18 11:20:26;;;;;;;2.80;2.60;;;27.90;99.90;;;;;;5058295;28;20202;-76
2022/05/18 11:23:05;;;;;;;4.05;2.88;;;27.70;99.90;;;;;;5063309;28;20691;-76
2022/05/18 11:25:40;;;;;;;7.38;2.40;;;27.80;99.90;;;;;;5060196;28;20214;-74
2022/05/18 11:28:33;;;;;;;4.78;2.83;;;27.60;99.90;;;;;;5059333;28;20708;-75
2022/05/18 11:31:12;;;;;;;2.92;2.58;;;27.50;99.90;;;;;;5060921;28;20261;-75
2022/05/18 11:33:46;;;;;;;2.63;2.30;;;27.50;99.90;;;;;;5060374;28;20195;-74
2022/05/18 11:36:25;;;;;;;4.20;2.72;;;27.40;99.90;;;;;;5061082;28;20190;-73
2022/05/18 11:39:02;;;;;;;5.43;2.28;;;27.30;99.90;;;;;;5067410;28;20218;-76
2022/05/18 11:41:44;;;;;;;2.72;2.35;;;27.30;99.90;;;;;;5061168;28;20222;-75
2022/05/18 11:44:22;;;;;;;2.33;2.13;;;27.20;99.90;;;;;;5061861;28;20739;-75
2022/05/18 11:47:10;;;;;;;3.10;2.20;;;27.20;99.90;;;;;;5062065;28;20222;-75
2022/05/18 11:49:44;;;;;;;2.92;2.50;;;27.10;99.90;;;;;;5059330;28;20218;-75
2022/05/18 11:52:25;;;;;;;2.70;2.50;;;27.10;99.90;;;;;;5058836;28;20230;-74
2022/05/18 11:55:09;;;;;;;4.05;2.70;;;27.10;99.90;;;;;;5058153;28;20277;-75
2022/05/18 11:57:45;;;;;;;2.72;2.50;;;27.70;99.90;;;;;;5060425;28;20712;-74
2022/05/18 12:00:24;;;;;;;4.13;3.08;;;28.00;99.90;;;;;;5058500;28;20684;-74
2022/05/18 12:03:13;;;;;;;3.42;2.50;;;27.90;99.90;;;;;;5061257;28;20229;-75
2022/05/18 12:06:09;;;;;;;2.55;2.35;;;27.90;99.90;;;;;;5060603;28;20229;-75
2022/05/18 12:09:00;;;;;;;3.10;2.80;;;28.00;99.90;;;;;;5053616;28;20238;-75
2022/05/18 12:11:39;;;;;;;3.35;3.00;;;28.20;99.90;;;;;;5060085;28;20195;-75
2022/05/18 12:14:26;;;;;;;3.22;2.65;;;28.50;99.90;;;;;;5063058;28;20313;-74
2022/05/18 12:16:59;;;;;;;2.17;2.08;;;28.40;99.90;;;;;;5061520;28;20264;-75
2022/05/18 12:19:31;;;;;;;4.13;3.05;;;28.20;99.90;;;;;;5063721;28;20230;-75
2022/05/18 12:22:02;;;;;;;2.95;2.60;;;27.90;99.90;;;;;;5060889;28;20202;-75
2022/05/18 12:24:30;;;;;;;3.40;2.78;;;27.70;99.90;;;;;;5039930;28;20227;-75
2022/05/18 12:26:59;;;;;;;4.47;2.83;;;27.40;99.90;;;;;;5034086;28;20792;-75
2022/05/18 12:29:28;;;;;;;4.55;2.80;;;27.40;99.90;;;;;;5042921;28;20222;-75
2022/05/18 12:31:58;;;;;;;2.85;2.30;;;27.20;99.90;;;;;;5035773;28;20587;-74
2022/05/18 12:34:38;;;;;;;3.83;2.50;;;27.20;99.90;;;;;;5048569;28;20676;-74
2022/05/18 12:37:18;;;;;;;4.75;2.75;;;27.20;99.90;;;;;;5052987;28;20190;-75
2022/05/18 12:39:49;;;;;;;2.63;2.40;;;27.30;99.90;;;;;;5055194;28;20219;-75
2022/05/18 12:42:22;;;;;;;2.42;2.22;;;27.20;99.90;;;;;;5057741;28;20590;-74
2022/05/18 12:44:54;;;;;;;3.63;2.30;;;27.30;99.90;;;;;;5055963;28;20609;-75
2022/05/18 12:47:25;;;;;;;3.53;3.13;;;27.40;99.90;;;;;;5055790;28;20217;-75
2022/05/18 12:49:58;;;;;;;4.40;2.72;;;27.40;99.90;;;;;;5057890;28;20696;-75
2022/05/18 12:52:43;;;;;;;3.08;2.80;;;27.40;99.90;;;;;;5059689;28;20218;-74
2022/05/18 12:55:23;;;;;;;2.90;2.40;;;27.20;99.90;;;;;;5045024;28;20206;-74
2022/05/18 12:57:53;;;;;;;4.38;2.92;;;27.10;99.90;;;;;;5044166;28;20315;-75
2022/05/18 13:00:46;;;;;;;10.25;2.40;;;26.80;99.90;;;;;;5048840;28;20203;-75
2022/05/18 13:03:45;;;;;;;3.67;3.03;;;26.80;99.90;;;;;;5053323;28;20238;-73
2022/05/18 13:06:16;;;;;;;4.50;2.67;;;26.70;99.90;;;;;;5043987;28;20280;-74
2022/05/18 13:09:00;;;;;;;3.83;2.80;;;26.70;99.90;;;;;;5043152;28;20239;-75
2022/05/18 13:11:49;;;;;;;4.22;2.50;;;26.70;99.90;;;;;;5046006;28;20199;-75
2022/05/18 13:14:36;;;;;;;3.70;2.50;;;26.90;99.90;;;;;;5044565;28;20223;-73
2022/05/18 13:17:21;;;;;;;3.00;2.70;;;27.50;99.90;;;;;;5042020;28;20200;-75
2022/05/18 13:20:05;;;;;;;3.10;2.33;;;27.70;99.90;;;;;;5065342;28;20222;-75
2022/05/18 13:22:47;;;;;;;3.80;2.40;;;27.80;99.90;;;;;;5062071;28;20300;-75
2022/05/18 13:25:14;;;;;;;3.42;2.40;;;27.70;99.90;;;;;;5063109;28;20259;-74
2022/05/18 13:27:55;;;;;;;4.68;2.53;;;27.40;99.90;;;;;;5061041;28;20276;-75